Time,TemperatureF,DewpointF,PressureIn,WindDirection,WindDirectionDegrees,WindSpeedMPH,WindSpeedGustMPH,Humidity,HourlyPrecipIn,Conditions,Clouds,dailyrainin,SoftwareType,DateUTC
2013-10-22 00:01:00,45.1,39.7,29.81,NW,323,0.0,0.0,81,0.00,,,0.00,meteohub,2013-10-22 04:01:00,
2013-10-22 00:02:00,45.1,39.7,29.81,NW,323,0.0,0.0,81,0.00,,,0.00,meteohub,2013-10-22 04:02:00,
2013-10-22 00:04:00,45.1,39.7,29.81,NW,323,0.0,0.0,81,0.00,,,0.00,meteohub,2013-10-22 04:04:00,
2013-10-22 00:07:00,45.0,39.6,29.81,NW,323,0.0,0.0,81,0.00,,,0.00,meteohub,2013-10-22 04:07:00,
2013-10-22 00:10:00,44.8,39.4,29.81,NW,323,0.0,0.0,81,0.00,,,0.00,meteohub,2013-10-22 04:10:00,
2013-10-22 00:15:00,44.8,39.4,29.81,NW,323,0.0,0.0,81,0.00,,,0.00,meteohub,2013-10-22 04:15:00,
2013-10-22 00:20:00,44.8,39.6,29.81,NW,323,0.0,0.0,82,0.00,,,0.00,meteohub,2013-10-22 04:20:00,
2013-10-22 00:25:00,44.8,39.6,29.81,NW,323,0.0,0.0,82,0.00,,,0.00,meteohub,2013-10-22 04:25:00,
2013-10-22 00:31:00,44.8,39.6,29.81,NW,323,0.0,0.0,82,0.00,,,0.00,meteohub,2013-10-22 04:31:00,
2013-10-22 00:36:00,45.1,40.3,29.81,NW,323,0.0,0.0,83,0.00,,,0.00,meteohub,2013-10-22 04:36:00,
2013-10-22 00:41:00,45.3,40.8,29.81,NW,323,0.0,0.0,84,0.00,,,0.00,meteohub,2013-10-22 04:41:00,
2013-10-22 00:46:00,45.3,40.8,29.81,NW,324,0.0,0.0,84,0.00,,,0.00,meteohub,2013-10-22 04:46:00,
2013-10-22 00:51:00,45.1,40.6,29.81,NW,323,0.0,0.0,84,0.00,,,0.00,meteohub,2013-10-22 04:51:00,
2013-10-22 00:56:00,45.0,40.5,29.81,NW,323,0.0,0.0,84,0.00,,,0.00,meteohub,2013-10-22 04:56:00,
2013-10-22 01:01:00,44.8,40.5,29.81,NW,325,0.0,0.0,85,0.00,,,0.00,meteohub,2013-10-22 05:01:00,
2013-10-22 01:06:00,45.1,40.8,29.81,NW,325,0.0,0.0,85,0.00,,,0.00,meteohub,2013-10-22 05:06:00,
2013-10-22 01:11:00,45.1,41.2,29.81,NW,325,0.0,0.0,86,0.00,,,0.00,meteohub,2013-10-22 05:11:00,
2013-10-22 01:16:00,45.1,41.5,29.81,NW,325,0.0,0.0,87,0.00,,,0.00,meteohub,2013-10-22 05:16:00,
2013-10-22 01:21:00,45.0,41.4,29.81,NW,325,0.0,0.0,87,0.00,,,0.00,meteohub,2013-10-22 05:21:00,
2013-10-22 01:26:00,45.0,41.4,29.81,NW,325,0.0,0.0,87,0.00,,,0.00,meteohub,2013-10-22 05:26:00,
2013-10-22 01:31:00,44.6,41.0,29.78,NW,325,0.0,0.0,87,0.00,,,0.00,meteohub,2013-10-22 05:31:00,
2013-10-22 01:37:00,44.4,41.2,29.78,NW,325,0.0,0.0,88,0.00,,,0.00,meteohub,2013-10-22 05:37:00,
2013-10-22 01:42:00,44.1,40.8,29.78,NW,325,0.0,0.0,88,0.00,,,0.00,meteohub,2013-10-22 05:42:00,
2013-10-22 01:47:00,44.1,40.8,29.78,NW,325,0.0,0.0,88,0.00,,,0.00,meteohub,2013-10-22 05:47:00,
2013-10-22 01:52:00,43.9,40.6,29.78,NW,325,0.0,0.0,88,0.00,,,0.00,meteohub,2013-10-22 05:52:00,
2013-10-22 01:57:00,43.7,40.5,29.78,NW,325,0.0,0.0,88,0.00,,,0.00,meteohub,2013-10-22 05:57:00,
2013-10-22 02:02:00,43.7,40.6,29.78,NW,325,0.0,0.0,89,0.00,,,0.00,meteohub,2013-10-22 06:02:00,
2013-10-22 02:07:00,43.7,40.6,29.78,NW,325,0.0,0.0,89,0.00,,,0.00,meteohub,2013-10-22 06:07:00,
2013-10-22 02:12:00,43.7,40.6,29.78,NW,325,0.0,0.0,89,0.00,,,0.00,meteohub,2013-10-22 06:12:00,
2013-10-22 02:17:00,43.7,41.0,29.78,NW,325,0.0,0.0,90,0.00,,,0.00,meteohub,2013-10-22 06:17:00,
2013-10-22 02:22:00,43.7,41.0,29.78,NW,325,0.0,0.0,90,0.00,,,0.00,meteohub,2013-10-22 06:22:00,
2013-10-22 02:27:00,43.7,41.2,29.78,NW,325,0.0,0.0,91,0.00,,,0.00,meteohub,2013-10-22 06:27:00,
2013-10-22 02:32:00,43.5,41.0,29.78,NW,325,0.0,0.0,91,0.00,,,0.00,meteohub,2013-10-22 06:32:00,
2013-10-22 02:37:00,43.3,40.8,29.78,NW,325,0.0,0.0,91,0.00,,,0.00,meteohub,2013-10-22 06:37:00,
2013-10-22 02:42:00,43.0,40.5,29.78,NW,324,0.0,0.0,91,0.00,,,0.00,meteohub,2013-10-22 06:42:00,
2013-10-22 02:47:00,42.8,40.3,29.75,NW,325,0.0,0.0,91,0.00,,,0.00,meteohub,2013-10-22 06:47:00,
2013-10-22 02:52:00,42.8,40.3,29.75,NW,325,0.0,0.0,91,0.00,,,0.00,meteohub,2013-10-22 06:52:00,
2013-10-22 02:57:00,43.2,41.0,29.75,NW,325,0.0,0.0,92,0.00,,,0.00,meteohub,2013-10-22 06:57:00,
2013-10-22 03:02:00,43.5,41.4,29.75,NW,325,0.0,0.0,92,0.00,,,0.00,meteohub,2013-10-22 07:02:00,
2013-10-22 03:07:00,43.5,41.7,29.75,NW,325,0.0,0.0,93,0.00,,,0.00,meteohub,2013-10-22 07:07:00,
2013-10-22 03:12:00,43.5,41.7,29.75,NW,325,0.0,0.0,93,0.00,,,0.00,meteohub,2013-10-22 07:12:00,
2013-10-22 03:17:00,43.7,41.7,29.75,NW,325,0.0,0.0,93,0.00,,,0.00,meteohub,2013-10-22 07:17:00,
2013-10-22 03:22:00,43.7,42.1,29.75,NW,325,0.0,0.0,94,0.00,,,0.00,meteohub,2013-10-22 07:22:00,
2013-10-22 03:27:00,43.3,41.7,29.75,NW,325,0.0,0.0,94,0.00,,,0.00,meteohub,2013-10-22 07:27:00,
2013-10-22 03:32:00,43.0,41.4,29.75,NW,325,0.0,0.0,94,0.00,,,0.00,meteohub,2013-10-22 07:32:00,
2013-10-22 03:37:00,42.8,41.2,29.75,NW,325,0.0,0.0,94,0.00,,,0.00,meteohub,2013-10-22 07:37:00,
2013-10-22 03:42:00,42.4,40.8,29.75,NW,325,0.0,0.0,94,0.00,,,0.00,meteohub,2013-10-22 07:42:00,
2013-10-22 03:47:00,42.4,40.8,29.75,NW,325,0.0,0.0,94,0.00,,,0.00,meteohub,2013-10-22 07:47:00,
2013-10-22 03:52:00,42.8,41.2,29.75,NW,325,0.0,0.0,94,0.00,,,0.00,meteohub,2013-10-22 07:52:00,
2013-10-22 03:57:00,43.2,41.5,29.75,NW,325,0.0,0.0,94,0.00,,,0.00,meteohub,2013-10-22 07:57:00,
2013-10-22 04:02:00,43.2,41.9,29.75,NW,325,0.0,0.0,95,0.00,,,0.00,meteohub,2013-10-22 08:02:00,
2013-10-22 04:07:00,43.0,41.7,29.75,NW,325,0.0,0.0,95,0.00,,,0.00,meteohub,2013-10-22 08:07:00,
2013-10-22 04:12:00,42.6,41.4,29.75,NW,325,0.0,0.0,95,0.00,,,0.00,meteohub,2013-10-22 08:12:00,
2013-10-22 04:17:00,42.6,41.4,29.75,NW,325,0.0,0.0,95,0.00,,,0.00,meteohub,2013-10-22 08:17:00,
2013-10-22 04:22:00,42.6,41.4,29.75,NW,325,0.0,0.0,95,0.00,,,0.00,meteohub,2013-10-22 08:22:00,
2013-10-22 04:27:00,42.6,41.4,29.75,NW,325,0.0,0.0,95,0.00,,,0.00,meteohub,2013-10-22 08:27:00,
2013-10-22 04:33:00,42.8,41.5,29.75,NW,325,0.0,0.0,95,0.00,,,0.00,meteohub,2013-10-22 08:33:00,
2013-10-22 04:38:00,42.6,41.5,29.75,NW,325,0.0,0.0,96,0.00,,,0.00,meteohub,2013-10-22 08:38:00,
2013-10-22 04:43:00,42.4,41.4,29.75,NW,325,0.0,0.0,96,0.00,,,0.00,meteohub,2013-10-22 08:43:00,
2013-10-22 04:48:00,42.4,41.4,29.72,NW,325,0.0,0.0,96,0.00,,,0.00,meteohub,2013-10-22 08:48:00,
2013-10-22 04:53:00,42.3,41.2,29.72,NW,325,0.0,0.0,96,0.00,,,0.00,meteohub,2013-10-22 08:53:00,
2013-10-22 04:58:00,42.3,41.2,29.72,NW,325,0.0,0.0,96,0.00,,,0.00,meteohub,2013-10-22 08:58:00,
2013-10-22 05:03:00,42.8,41.7,29.72,NW,325,3.0,0.0,96,0.00,,,0.00,meteohub,2013-10-22 09:03:00,
2013-10-22 05:08:00,42.8,41.7,29.72,NW,325,3.0,3.0,96,0.00,,,0.00,meteohub,2013-10-22 09:08:00,
2013-10-22 05:13:00,42.4,41.4,29.72,NW,325,0.0,4.0,96,0.00,,,0.00,meteohub,2013-10-22 09:13:00,
2013-10-22 05:18:00,42.3,41.2,29.72,NW,325,3.0,4.0,96,0.00,,,0.00,meteohub,2013-10-22 09:18:00,
2013-10-22 05:23:00,42.1,41.0,29.72,NW,325,0.0,4.0,96,0.00,,,0.00,meteohub,2013-10-22 09:23:00,
2013-10-22 05:28:00,42.1,41.0,29.72,NW,325,0.0,3.0,96,0.00,,,0.00,meteohub,2013-10-22 09:28:00,
2013-10-22 05:33:00,42.1,41.0,29.72,NW,325,0.0,3.0,96,0.00,,,0.00,meteohub,2013-10-22 09:33:00,
2013-10-22 05:39:00,41.7,40.6,29.72,NW,325,0.0,2.0,96,0.00,,,0.00,meteohub,2013-10-22 09:39:00,
2013-10-22 05:44:00,41.7,40.6,29.72,NW,325,0.0,0.0,96,0.00,,,0.00,meteohub,2013-10-22 09:44:00,
2013-10-22 05:49:00,41.9,41.2,29.72,NW,325,0.0,0.0,97,0.00,,,0.00,meteohub,2013-10-22 09:49:00,
2013-10-22 05:55:00,41.9,41.2,29.72,NW,325,0.0,0.0,97,0.00,,,0.00,meteohub,2013-10-22 09:55:00,
2013-10-22 06:00:00,41.9,41.2,29.72,NW,325,0.0,0.0,97,0.00,,,0.00,meteohub,2013-10-22 10:00:00,
2013-10-22 06:05:00,41.9,41.2,29.72,NW,325,0.0,0.0,97,0.00,,,0.00,meteohub,2013-10-22 10:05:00,
2013-10-22 06:10:00,41.5,40.8,29.72,NW,325,0.0,0.0,97,0.00,,,0.00,meteohub,2013-10-22 10:10:00,
2013-10-22 06:15:00,41.5,40.8,29.72,NW,325,0.0,0.0,97,0.00,,,0.00,meteohub,2013-10-22 10:15:00,
2013-10-22 06:20:00,41.5,40.8,29.72,NW,325,0.0,0.0,97,0.00,,,0.00,meteohub,2013-10-22 10:20:00,
2013-10-22 06:25:00,41.5,40.8,29.72,NW,325,0.0,0.0,97,0.00,,,0.00,meteohub,2013-10-22 10:25:00,
2013-10-22 06:30:00,41.7,41.0,29.72,NW,325,0.0,0.0,97,0.00,,,0.00,meteohub,2013-10-22 10:30:00,
2013-10-22 06:36:00,41.7,41.0,29.72,NW,325,0.0,0.0,97,0.00,,,0.00,meteohub,2013-10-22 10:36:00,
2013-10-22 06:41:00,41.9,41.2,29.72,NW,324,0.0,0.0,97,0.00,,,0.00,meteohub,2013-10-22 10:41:00,
2013-10-22 06:46:00,42.3,41.5,29.72,NW,325,0.0,0.0,97,0.00,,,0.00,meteohub,2013-10-22 10:46:00,
2013-10-22 06:51:00,42.4,41.9,29.69,NW,325,0.0,0.0,98,0.00,,,0.00,meteohub,2013-10-22 10:51:00,
2013-10-22 06:56:00,42.6,42.1,29.69,NW,325,0.0,0.0,98,0.00,,,0.00,meteohub,2013-10-22 10:56:00,
2013-10-22 07:01:00,42.8,42.1,29.69,NW,325,0.0,0.0,97,0.00,,,0.00,meteohub,2013-10-22 11:01:00,
2013-10-22 07:06:00,42.6,42.1,29.69,NW,325,0.0,0.0,98,0.00,,,0.00,meteohub,2013-10-22 11:06:00,
2013-10-22 07:12:00,42.3,41.7,29.69,NW,325,0.0,0.0,98,0.00,,,0.00,meteohub,2013-10-22 11:12:00,
2013-10-22 07:17:00,42.1,41.5,29.69,NW,325,0.0,0.0,98,0.00,,,0.00,meteohub,2013-10-22 11:17:00,
2013-10-22 07:22:00,42.1,41.5,29.69,NW,325,0.0,0.0,98,0.00,,,0.00,meteohub,2013-10-22 11:22:00,
2013-10-22 07:27:00,42.3,41.7,29.69,NW,325,0.0,0.0,98,0.00,,,0.00,meteohub,2013-10-22 11:27:00,
2013-10-22 07:32:00,42.4,41.9,29.69,NW,325,0.0,0.0,98,0.00,,,0.00,meteohub,2013-10-22 11:32:00,
2013-10-22 07:37:00,42.6,42.1,29.69,NW,325,0.0,0.0,98,0.00,,,0.00,meteohub,2013-10-22 11:37:00,
2013-10-22 07:42:00,42.6,42.1,29.69,NW,325,0.0,0.0,98,0.00,,,0.00,meteohub,2013-10-22 11:42:00,
2013-10-22 07:47:00,42.6,42.1,29.69,NW,325,0.0,0.0,98,0.00,,,0.00,meteohub,2013-10-22 11:47:00,
2013-10-22 07:52:00,42.8,42.3,29.69,NW,325,0.0,0.0,98,0.00,,,0.00,meteohub,2013-10-22 11:52:00,
2013-10-22 07:57:00,43.3,42.8,29.69,NW,325,0.0,0.0,98,0.00,,,0.00,meteohub,2013-10-22 11:57:00,
2013-10-22 08:02:00,43.7,43.2,29.69,NW,324,0.0,0.0,98,0.00,,,0.00,meteohub,2013-10-22 12:02:00,
2013-10-22 08:07:00,44.2,43.7,29.69,NW,325,0.0,0.0,98,0.00,,,0.00,meteohub,2013-10-22 12:07:00,
2013-10-22 08:12:00,45.1,44.6,29.69,NW,325,0.0,0.0,98,0.00,,,0.00,meteohub,2013-10-22 12:12:00,
2013-10-22 08:17:00,45.7,45.1,29.69,NW,325,0.0,0.0,98,0.00,,,0.00,meteohub,2013-10-22 12:17:00,
2013-10-22 08:22:00,46.0,45.5,29.69,NW,325,0.0,0.0,98,0.00,,,0.00,meteohub,2013-10-22 12:22:00,
2013-10-22 08:27:00,46.8,46.2,29.69,NW,325,0.0,0.0,98,0.00,,,0.00,meteohub,2013-10-22 12:27:00,
2013-10-22 08:32:00,46.8,46.2,29.69,NW,325,0.0,0.0,98,0.00,,,0.00,meteohub,2013-10-22 12:32:00,
2013-10-22 08:37:00,47.1,46.6,29.69,NW,325,0.0,0.0,98,0.00,,,0.00,meteohub,2013-10-22 12:37:00,
2013-10-22 08:42:00,47.3,46.8,29.69,NW,325,0.0,0.0,98,0.00,,,0.00,meteohub,2013-10-22 12:42:00,
2013-10-22 08:47:00,47.8,47.3,29.69,NW,325,0.0,0.0,98,0.00,,,0.00,meteohub,2013-10-22 12:47:00,
2013-10-22 08:52:00,48.6,48.0,29.69,NW,325,0.0,0.0,98,0.00,,,0.00,meteohub,2013-10-22 12:52:00,
2013-10-22 09:08:00,50.4,49.8,29.69,NW,325,0.0,0.0,98,0.00,,,0.00,meteohub,2013-10-22 13:08:00,
2013-10-22 09:13:00,50.5,50.0,29.69,NW,325,0.0,0.0,98,0.00,,,0.00,meteohub,2013-10-22 13:13:00,
2013-10-22 09:19:00,53.4,52.9,29.69,South,185,2.0,0.0,98,0.00,,,0.00,meteohub,2013-10-22 13:19:00,
2013-10-22 09:24:00,54.0,53.4,29.69,SW,222,0.0,4.0,98,0.00,,,0.00,meteohub,2013-10-22 13:24:00,
2013-10-22 10:00:00,58.3,50.7,29.69,South,169,2.0,6.0,76,0.00,,,0.00,meteohub,2013-10-22 14:00:00,
2013-10-22 10:05:00,58.8,50.5,29.66,SW,221,0.0,6.0,74,0.00,,,0.00,meteohub,2013-10-22 14:05:00,
2013-10-22 10:10:00,58.8,49.8,29.66,SE,124,2.0,6.0,72,0.00,,,0.00,meteohub,2013-10-22 14:10:00,
2013-10-22 10:17:00,58.1,47.7,29.66,ENE,58,3.0,8.0,68,0.00,,,0.00,meteohub,2013-10-22 14:17:00,
2013-10-22 10:22:00,58.1,47.1,29.66,SW,223,3.0,8.0,67,0.00,,,0.00,meteohub,2013-10-22 14:22:00,
2013-10-22 10:27:00,58.1,47.1,29.66,NNW,340,4.0,6.0,67,0.00,,,0.00,meteohub,2013-10-22 14:27:00,
2013-10-22 10:32:00,58.3,46.6,29.66,SSW,196,3.0,6.0,65,0.00,,,0.00,meteohub,2013-10-22 14:32:00,
2013-10-22 10:41:00,60.6,48.0,29.66,SSE,156,0.0,6.0,63,0.00,,,0.00,meteohub,2013-10-22 14:41:00,
2013-10-22 10:48:00,61.0,46.0,29.66,NNW,331,0.0,7.0,58,0.00,,,0.00,meteohub,2013-10-22 14:48:00,
2013-10-22 11:16:00,61.7,43.9,29.66,SE,136,3.0,7.0,52,0.00,,,0.00,meteohub,2013-10-22 15:16:00,
2013-10-22 11:21:00,61.0,43.2,29.66,ESE,118,4.0,7.0,52,0.00,,,0.00,meteohub,2013-10-22 15:21:00,
2013-10-22 11:26:00,61.7,44.4,29.66,East,81,0.0,8.0,53,0.00,,,0.00,meteohub,2013-10-22 15:26:00,
2013-10-22 11:31:00,62.6,44.8,29.66,WNW,291,4.0,8.0,52,0.00,,,0.00,meteohub,2013-10-22 15:31:00,
2013-10-22 11:36:00,62.8,43.9,29.66,ESE,120,3.0,8.0,50,0.00,,,0.00,meteohub,2013-10-22 15:36:00,
2013-10-22 11:42:00,63.0,44.1,29.66,SW,220,0.0,6.0,50,0.00,,,0.00,meteohub,2013-10-22 15:42:00,
2013-10-22 11:47:00,62.8,43.3,29.66,SW,220,2.0,6.0,49,0.00,,,0.00,meteohub,2013-10-22 15:47:00,
2013-10-22 11:52:00,62.8,43.3,29.66,SW,229,0.0,11.0,49,0.00,,,0.00,meteohub,2013-10-22 15:52:00,
2013-10-22 11:57:00,62.6,42.1,29.66,SSE,160,4.0,11.0,47,0.00,,,0.00,meteohub,2013-10-22 15:57:00,
2013-10-22 12:02:00,62.4,41.9,29.66,WSW,240,3.0,11.0,47,0.00,,,0.00,meteohub,2013-10-22 16:02:00,
2013-10-22 12:07:00,61.9,41.4,29.66,ENE,66,5.0,6.0,47,0.00,,,0.00,meteohub,2013-10-22 16:07:00,
2013-10-22 12:12:00,61.9,41.4,29.66,SE,137,3.0,6.0,47,0.00,,,0.00,meteohub,2013-10-22 16:12:00,
2013-10-22 12:26:00,60.1,41.9,29.66,West,260,3.0,6.0,51,0.00,,,0.00,meteohub,2013-10-22 16:26:00,
2013-10-22 12:31:00,59.4,41.7,29.66,ENE,74,0.0,6.0,52,0.00,,,0.00,meteohub,2013-10-22 16:31:00,
2013-10-22 12:36:00,58.6,42.1,29.66,West,272,3.0,6.0,54,0.00,,,0.00,meteohub,2013-10-22 16:36:00,
2013-10-22 12:41:00,58.3,42.6,29.66,West,269,0.0,6.0,56,0.00,,,0.00,meteohub,2013-10-22 16:41:00,
2013-10-22 12:46:00,57.6,41.9,29.66,WSW,247,4.0,5.0,56,0.00,,,0.00,meteohub,2013-10-22 16:46:00,
2013-10-22 12:51:00,57.7,43.0,29.66,ENE,69,0.0,5.0,58,0.00,,,0.00,meteohub,2013-10-22 16:51:00,
2013-10-22 12:56:00,57.9,42.8,29.66,WNW,293,3.0,5.0,57,0.00,,,0.00,meteohub,2013-10-22 16:56:00,
2013-10-22 13:01:00,58.1,43.3,29.66,NW,311,0.0,4.0,58,0.00,,,0.00,meteohub,2013-10-22 17:01:00,
2013-10-22 13:06:00,58.1,43.3,29.63,ENE,78,0.0,4.0,58,0.00,,,0.00,meteohub,2013-10-22 17:06:00,
2013-10-22 13:11:00,58.1,43.9,29.63,ENE,78,0.0,4.0,59,0.00,,,0.00,meteohub,2013-10-22 17:11:00,
2013-10-22 13:16:00,57.7,43.5,29.63,NW,326,0.0,6.0,59,0.00,,,0.00,meteohub,2013-10-22 17:16:00,
2013-10-22 13:21:00,57.7,43.5,29.63,NE,54,0.0,6.0,59,0.00,,,0.00,meteohub,2013-10-22 17:21:00,
2013-10-22 13:26:00,57.6,44.2,29.63,WNW,295,0.0,6.0,61,0.00,,,0.00,meteohub,2013-10-22 17:26:00,
2013-10-22 13:31:00,57.7,44.4,29.63,NNW,345,0.0,4.0,61,0.00,,,0.00,meteohub,2013-10-22 17:31:00,
2013-10-22 13:37:00,58.1,45.1,29.63,East,86,0.0,4.0,62,0.00,,,0.00,meteohub,2013-10-22 17:37:00,
2013-10-22 13:42:00,58.3,45.0,29.63,SSE,167,4.0,4.0,61,0.00,,,0.00,meteohub,2013-10-22 17:42:00,
2013-10-22 13:47:00,58.5,44.2,29.63,NE,47,3.0,4.0,59,0.00,,,0.00,meteohub,2013-10-22 17:47:00,
2013-10-22 13:52:00,58.5,43.7,29.63,SSW,212,0.0,4.0,58,0.00,,,0.00,meteohub,2013-10-22 17:52:00,
2013-10-22 13:57:00,58.5,43.7,29.63,NW,308,0.0,4.0,58,0.00,,,0.00,meteohub,2013-10-22 17:57:00,
2013-10-22 14:02:00,58.5,42.8,29.63,NNE,28,5.0,5.0,56,0.00,,,0.00,meteohub,2013-10-22 18:02:00,
2013-10-22 14:07:00,58.5,42.4,29.63,NNW,345,0.0,6.0,55,0.00,,,0.00,meteohub,2013-10-22 18:07:00,
2013-10-22 14:12:00,58.5,43.3,29.63,SSE,151,0.0,6.0,57,0.00,,,0.00,meteohub,2013-10-22 18:12:00,
2013-10-22 14:17:00,58.5,43.3,29.63,WSW,244,0.0,6.0,57,0.00,,,0.00,meteohub,2013-10-22 18:17:00,
2013-10-22 14:22:00,58.1,43.3,29.63,WSW,250,3.0,5.0,58,0.00,,,0.00,meteohub,2013-10-22 18:22:00,
2013-10-22 14:27:00,57.9,43.7,29.63,WNW,302,0.0,5.0,59,0.00,,,0.00,meteohub,2013-10-22 18:27:00,
2013-10-22 14:32:00,57.7,43.9,29.63,West,262,2.0,4.0,60,0.00,,,0.00,meteohub,2013-10-22 18:32:00,
2013-10-22 14:37:00,57.6,43.7,29.63,East,88,0.0,4.0,60,0.00,,,0.00,meteohub,2013-10-22 18:37:00,
2013-10-22 14:42:00,57.7,44.4,29.63,West,265,3.0,5.0,61,0.00,,,0.00,meteohub,2013-10-22 18:42:00,
2013-10-22 14:47:00,57.7,43.9,29.63,SW,232,0.0,5.0,60,0.00,,,0.00,meteohub,2013-10-22 18:47:00,
2013-10-22 14:52:00,57.9,43.7,29.63,SW,234,0.0,5.0,59,0.00,,,0.00,meteohub,2013-10-22 18:52:00,
2013-10-22 14:57:00,58.1,44.2,29.63,SW,234,0.0,8.0,60,0.00,,,0.00,meteohub,2013-10-22 18:57:00,
2013-10-22 15:02:00,58.5,44.6,29.60,South,190,0.0,8.0,60,0.00,,,0.00,meteohub,2013-10-22 19:02:00,
2013-10-22 15:07:00,58.5,44.2,29.60,WSW,244,0.0,4.0,59,0.00,,,0.00,meteohub,2013-10-22 19:07:00,
2013-10-22 15:12:00,58.5,43.7,29.60,SE,129,0.0,6.0,58,0.00,,,0.00,meteohub,2013-10-22 19:12:00,
2013-10-22 15:17:00,58.8,44.1,29.60,SE,146,4.0,6.0,58,0.00,,,0.00,meteohub,2013-10-22 19:17:00,
2013-10-22 15:22:00,58.6,43.0,29.60,ESE,120,3.0,8.0,56,0.00,,,0.00,meteohub,2013-10-22 19:22:00,
2013-10-22 15:27:00,58.6,42.4,29.60,South,191,0.0,8.0,55,0.00,,,0.00,meteohub,2013-10-22 19:27:00,
2013-10-22 15:32:00,58.8,43.2,29.60,SSW,192,4.0,8.0,56,0.00,,,0.00,meteohub,2013-10-22 19:32:00,
2013-10-22 15:37:00,59.0,41.9,29.60,SW,229,0.0,5.0,53,0.00,,,0.00,meteohub,2013-10-22 19:37:00,
2013-10-22 15:42:00,58.6,42.1,29.60,SE,128,6.0,9.0,54,0.00,,,0.00,meteohub,2013-10-22 19:42:00,
2013-10-22 15:48:00,58.8,41.7,29.60,SW,227,4.0,9.0,53,0.00,,,0.00,meteohub,2013-10-22 19:48:00,
2013-10-22 15:53:00,58.8,41.2,29.60,West,281,4.0,9.0,52,0.00,,,0.00,meteohub,2013-10-22 19:53:00,
2013-10-22 15:58:00,58.6,40.6,29.60,SE,136,0.0,6.0,51,0.00,,,0.00,meteohub,2013-10-22 19:58:00,
2013-10-22 16:03:00,58.5,40.8,29.60,SE,134,3.0,11.0,52,0.00,,,0.00,meteohub,2013-10-22 20:03:00,
2013-10-22 16:08:00,58.5,40.5,29.60,NW,304,3.0,11.0,51,0.00,,,0.00,meteohub,2013-10-22 20:08:00,
2013-10-22 16:13:00,58.5,40.8,29.60,East,82,4.0,11.0,52,0.00,,,0.00,meteohub,2013-10-22 20:13:00,
2013-10-22 16:18:00,58.3,41.2,29.60,ESE,112,3.0,11.0,53,0.00,,,0.00,meteohub,2013-10-22 20:18:00,
2013-10-22 16:23:00,58.1,41.5,29.60,SSW,199,8.0,11.0,54,0.00,,,0.00,meteohub,2013-10-22 20:23:00,
2013-10-22 16:28:00,57.9,40.8,29.60,West,273,0.0,8.0,53,0.00,,,0.00,meteohub,2013-10-22 20:28:00,
2013-10-22 16:33:00,57.7,40.6,29.60,WNW,301,0.0,8.0,53,0.00,,,0.00,meteohub,2013-10-22 20:33:00,
2013-10-22 16:38:00,57.7,41.2,29.60,SW,226,3.0,8.0,54,0.00,,,0.00,meteohub,2013-10-22 20:38:00,
2013-10-22 16:43:00,57.4,39.9,29.60,WSW,245,5.0,6.0,52,0.00,,,0.00,meteohub,2013-10-22 20:43:00,
2013-10-22 16:48:00,57.0,40.1,29.60,West,279,0.0,6.0,53,0.00,,,0.00,meteohub,2013-10-22 20:48:00,
2013-10-22 16:53:00,56.8,39.9,29.60,SW,227,4.0,6.0,53,0.00,,,0.00,meteohub,2013-10-22 20:53:00,
2013-10-22 16:59:00,56.7,39.7,29.60,ENE,78,0.0,6.0,53,0.00,,,0.00,meteohub,2013-10-22 20:59:00,
2013-10-22 17:04:00,56.7,40.3,29.60,NNE,19,6.0,6.0,54,0.00,,,0.00,meteohub,2013-10-22 21:04:00,
2013-10-22 17:09:00,56.3,39.9,29.60,NW,310,0.0,6.0,54,0.00,,,0.00,meteohub,2013-10-22 21:09:00,
2013-10-22 17:14:00,56.1,40.1,29.60,WNW,293,0.0,6.0,55,0.00,,,0.00,meteohub,2013-10-22 21:14:00,
2013-10-22 17:19:00,55.9,39.9,29.60,SSW,211,3.0,6.0,55,0.00,,,0.00,meteohub,2013-10-22 21:19:00,
2013-10-22 17:24:00,55.8,39.4,29.60,ESE,118,3.0,6.0,54,0.00,,,0.00,meteohub,2013-10-22 21:24:00,
2013-10-22 17:29:00,55.4,39.0,29.60,South,185,2.0,6.0,54,0.00,,,0.00,meteohub,2013-10-22 21:29:00,
2013-10-22 17:34:00,55.2,39.4,29.60,West,264,2.0,6.0,55,0.00,,,0.00,meteohub,2013-10-22 21:34:00,
2013-10-22 17:39:00,54.9,39.0,29.60,NW,309,0.0,6.0,55,0.00,,,0.00,meteohub,2013-10-22 21:39:00,
2013-10-22 17:44:00,54.7,38.8,29.60,NNE,29,3.0,6.0,55,0.00,,,0.00,meteohub,2013-10-22 21:44:00,
2013-10-22 17:49:00,54.5,38.7,29.60,ENE,74,4.0,6.0,55,0.00,,,0.00,meteohub,2013-10-22 21:49:00,
2013-10-22 17:54:00,54.1,38.3,29.60,NNE,22,0.0,6.0,55,0.00,,,0.00,meteohub,2013-10-22 21:54:00,
2013-10-22 17:59:00,53.6,37.8,29.60,NNE,22,0.0,4.0,55,0.00,,,0.00,meteohub,2013-10-22 21:59:00,
2013-10-22 18:05:00,53.2,37.9,29.60,NNE,22,0.0,4.0,56,0.00,,,0.00,meteohub,2013-10-22 22:05:00,
2013-10-22 18:10:00,52.7,37.4,29.60,NNE,22,0.0,0.0,56,0.00,,,0.00,meteohub,2013-10-22 22:10:00,
2013-10-22 18:15:00,52.2,36.9,29.60,NNE,22,0.0,0.0,56,0.00,,,0.00,meteohub,2013-10-22 22:15:00,
2013-10-22 18:20:00,51.8,37.0,29.63,NNE,22,0.0,0.0,57,0.00,,,0.00,meteohub,2013-10-22 22:20:00,
2013-10-22 18:25:00,51.4,37.2,29.63,NNE,22,0.0,0.0,58,0.00,,,0.00,meteohub,2013-10-22 22:25:00,
2013-10-22 18:30:00,51.1,36.9,29.63,NNE,22,0.0,0.0,58,0.00,,,0.00,meteohub,2013-10-22 22:30:00,
2013-10-22 18:35:00,50.5,36.7,29.63,NNE,22,0.0,0.0,59,0.00,,,0.00,meteohub,2013-10-22 22:35:00,
2013-10-22 18:40:00,50.2,36.9,29.63,NNE,22,0.0,0.0,60,0.00,,,0.00,meteohub,2013-10-22 22:40:00,
2013-10-22 18:45:00,50.0,36.7,29.63,NNE,22,0.0,0.0,60,0.00,,,0.00,meteohub,2013-10-22 22:45:00,
2013-10-22 18:50:00,49.8,36.9,29.63,NNE,22,0.0,0.0,61,0.00,,,0.00,meteohub,2013-10-22 22:50:00,
2013-10-22 18:55:00,49.5,37.0,29.63,NNE,22,0.0,0.0,62,0.00,,,0.00,meteohub,2013-10-22 22:55:00,
2013-10-22 19:00:00,49.1,37.0,29.63,NNE,22,0.0,0.0,63,0.00,,,0.00,meteohub,2013-10-22 23:00:00,
2013-10-22 19:05:00,48.7,37.0,29.63,NNE,22,0.0,0.0,64,0.00,,,0.00,meteohub,2013-10-22 23:05:00,
2013-10-22 19:11:00,48.6,37.4,29.63,NNE,22,0.0,0.0,65,0.00,,,0.00,meteohub,2013-10-22 23:11:00,
2013-10-22 19:16:00,48.4,37.6,29.63,NNE,22,0.0,0.0,66,0.00,,,0.00,meteohub,2013-10-22 23:16:00,
2013-10-22 19:21:00,47.8,37.4,29.63,NNE,22,0.0,0.0,67,0.00,,,0.00,meteohub,2013-10-22 23:21:00,
2013-10-22 19:26:00,47.3,37.2,29.63,NNE,22,0.0,0.0,68,0.00,,,0.00,meteohub,2013-10-22 23:26:00,
2013-10-22 19:31:00,46.9,36.9,29.63,NNE,22,0.0,0.0,68,0.00,,,0.00,meteohub,2013-10-22 23:31:00,
2013-10-22 19:36:00,46.8,37.2,29.63,NNE,22,0.0,0.0,69,0.00,,,0.00,meteohub,2013-10-22 23:36:00,
2013-10-22 19:41:00,46.4,37.2,29.63,NNE,22,0.0,0.0,70,0.00,,,0.00,meteohub,2013-10-22 23:41:00,
2013-10-22 19:46:00,46.2,37.4,29.63,NNE,22,0.0,0.0,71,0.00,,,0.00,meteohub,2013-10-22 23:46:00,
2013-10-22 19:51:00,46.2,37.8,29.63,NNE,22,0.0,0.0,72,0.00,,,0.00,meteohub,2013-10-22 23:51:00,
2013-10-22 19:56:00,46.4,38.3,29.63,North,0,0.0,3.0,73,0.00,,,0.00,meteohub,2013-10-22 23:56:00,
2013-10-22 20:01:00,46.8,38.5,29.63,North,0,0.0,4.0,73,0.00,,,0.00,meteohub,2013-10-23 00:01:00,
2013-10-22 20:06:00,46.6,38.1,29.63,NW,304,0.0,4.0,72,0.00,,,0.00,meteohub,2013-10-23 00:06:00,
2013-10-22 20:11:00,46.4,37.9,29.63,WNW,303,0.0,3.0,72,0.00,,,0.00,meteohub,2013-10-23 00:11:00,
2013-10-22 20:17:00,46.4,37.6,29.63,WNW,303,0.0,3.0,71,0.00,,,0.00,meteohub,2013-10-23 00:17:00,
2013-10-22 20:22:00,46.2,37.4,29.63,WNW,303,0.0,0.0,71,0.00,,,0.00,meteohub,2013-10-23 00:22:00,
2013-10-22 20:27:00,46.0,37.2,29.63,WNW,303,0.0,0.0,71,0.00,,,0.00,meteohub,2013-10-23 00:27:00,
2013-10-22 20:32:00,45.5,36.7,29.63,WNW,303,0.0,2.0,71,0.00,,,0.00,meteohub,2013-10-23 00:32:00,
2013-10-22 20:37:00,45.1,36.3,29.63,WNW,303,0.0,2.0,71,0.00,,,0.00,meteohub,2013-10-23 00:37:00,
2013-10-22 20:42:00,45.3,35.8,29.63,WNW,303,0.0,2.0,69,0.00,,,0.00,meteohub,2013-10-23 00:42:00,
2013-10-22 20:47:00,45.1,35.2,29.63,WNW,303,0.0,2.0,68,0.00,,,0.00,meteohub,2013-10-23 00:47:00,
2013-10-22 20:52:00,44.8,34.5,29.63,WNW,303,0.0,2.0,67,0.00,,,0.00,meteohub,2013-10-23 00:52:00,
2013-10-22 20:57:00,44.8,34.5,29.63,WNW,300,0.0,2.0,67,0.00,,,0.00,meteohub,2013-10-23 00:57:00,
2013-10-22 21:02:00,44.8,34.2,29.66,WNW,288,0.0,3.0,66,0.00,,,0.00,meteohub,2013-10-23 01:02:00,
2013-10-22 21:07:00,44.8,34.2,29.66,East,92,0.0,4.0,66,0.00,,,0.00,meteohub,2013-10-23 01:07:00,
2013-10-22 21:12:00,44.8,34.5,29.66,East,100,0.0,4.0,67,0.00,,,0.00,meteohub,2013-10-23 01:12:00,
2013-10-22 21:17:00,45.0,35.1,29.66,North,3,2.0,4.0,68,0.00,,,0.00,meteohub,2013-10-23 01:17:00,
2013-10-22 21:22:00,45.0,35.1,29.66,North,3,0.0,3.0,68,0.00,,,0.00,meteohub,2013-10-23 01:22:00,
2013-10-22 21:27:00,44.8,35.2,29.66,North,350,0.0,4.0,69,0.00,,,0.00,meteohub,2013-10-23 01:27:00,
2013-10-22 21:32:00,44.8,34.9,29.66,North,350,0.0,4.0,68,0.00,,,0.00,meteohub,2013-10-23 01:32:00,
2013-10-22 21:37:00,44.8,34.9,29.66,North,350,0.0,4.0,68,0.00,,,0.00,meteohub,2013-10-23 01:37:00,
2013-10-22 21:42:00,44.8,34.5,29.66,North,350,0.0,0.0,67,0.00,,,0.00,meteohub,2013-10-23 01:42:00,
2013-10-22 21:47:00,44.6,34.3,29.66,North,350,0.0,0.0,67,0.00,,,0.00,meteohub,2013-10-23 01:47:00,
2013-10-22 21:52:00,44.4,33.8,29.66,North,350,0.0,0.0,66,0.00,,,0.00,meteohub,2013-10-23 01:52:00,
2013-10-22 21:57:00,44.4,33.4,29.66,North,350,0.0,0.0,65,0.00,,,0.00,meteohub,2013-10-23 01:57:00,
2013-10-22 22:02:00,44.2,32.9,29.66,North,350,0.0,0.0,64,0.00,,,0.00,meteohub,2013-10-23 02:02:00,
2013-10-22 22:07:00,44.2,32.9,29.66,North,350,0.0,0.0,64,0.00,,,0.00,meteohub,2013-10-23 02:07:00,
2013-10-22 22:12:00,44.2,32.9,29.66,North,350,0.0,3.0,64,0.00,,,0.00,meteohub,2013-10-23 02:12:00,
2013-10-22 22:17:00,44.1,33.1,29.66,SW,236,0.0,3.0,65,0.00,,,0.00,meteohub,2013-10-23 02:17:00,
2013-10-22 22:22:00,43.7,33.1,29.66,NNW,342,0.0,4.0,66,0.00,,,0.00,meteohub,2013-10-23 02:22:00,
2013-10-22 22:27:00,43.5,33.3,29.66,NNW,342,0.0,4.0,67,0.00,,,0.00,meteohub,2013-10-23 02:27:00,
2013-10-22 22:32:00,43.3,33.1,29.66,North,9,0.0,4.0,67,0.00,,,0.00,meteohub,2013-10-23 02:32:00,
2013-10-22 22:37:00,43.3,33.1,29.66,North,0,4.0,4.0,67,0.00,,,0.00,meteohub,2013-10-23 02:37:00,
2013-10-22 22:42:00,43.7,33.4,29.66,North,353,2.0,6.0,67,0.00,,,0.00,meteohub,2013-10-23 02:42:00,
2013-10-22 22:47:00,44.1,33.4,29.66,NNW,343,0.0,7.0,66,0.00,,,0.00,meteohub,2013-10-23 02:47:00,
2013-10-22 22:52:00,44.2,33.6,29.66,NNW,342,0.0,7.0,66,0.00,,,0.00,meteohub,2013-10-23 02:52:00,
2013-10-22 22:57:00,44.1,33.4,29.66,North,5,0.0,7.0,66,0.00,,,0.00,meteohub,2013-10-23 02:57:00,
2013-10-22 23:02:00,43.9,33.3,29.66,North,9,0.0,6.0,66,0.00,,,0.00,meteohub,2013-10-23 03:02:00,
2013-10-22 23:07:00,43.9,33.6,29.66,NW,325,3.0,5.0,67,0.00,,,0.00,meteohub,2013-10-23 03:07:00,
2013-10-22 23:12:00,44.1,33.8,29.66,North,357,0.0,6.0,67,0.00,,,0.00,meteohub,2013-10-23 03:12:00,
2013-10-22 23:17:00,43.9,34.0,29.66,NNE,15,3.0,6.0,68,0.00,,,0.00,meteohub,2013-10-23 03:17:00,
2013-10-22 23:22:00,44.1,34.5,29.66,NE,34,0.0,8.0,69,0.00,,,0.00,meteohub,2013-10-23 03:22:00,
2013-10-22 23:27:00,43.9,34.7,29.66,NNW,332,0.0,8.0,70,0.00,,,0.00,meteohub,2013-10-23 03:27:00,
2013-10-22 23:32:00,43.7,34.2,29.66,NW,313,0.0,8.0,69,0.00,,,0.00,meteohub,2013-10-23 03:32:00,
2013-10-22 23:37:00,43.5,34.3,29.66,NW,304,2.0,5.0,70,0.00,,,0.00,meteohub,2013-10-23 03:37:00,
2013-10-22 23:42:00,43.2,34.0,29.66,SSW,199,3.0,5.0,70,0.00,,,0.00,meteohub,2013-10-23 03:42:00,
2013-10-22 23:47:00,43.0,33.8,29.66,ENE,68,3.0,4.0,70,0.00,,,0.00,meteohub,2013-10-23 03:47:00,
2013-10-22 23:52:00,43.0,33.8,29.66,SW,229,2.0,5.0,70,0.00,,,0.00,meteohub,2013-10-23 03:52:00,
2013-10-22 23:57:00,43.0,33.8,29.66,NW,318,8.0,8.0,70,0.00,,,0.00,meteohub,2013-10-23 03:57:00,